CDT,Max TemperatureF,Mean TemperatureF,Min TemperatureF,Max Dew PointF,MeanDew PointF,Min DewpointF,Max Humidity, Mean Humidity, Min Humidity, Max Sea Level PressureIn, Mean Sea Level PressureIn, Min Sea Level PressureIn, Max VisibilityMiles, Mean VisibilityMiles, Min VisibilityMiles, Max Wind SpeedMPH, Mean Wind SpeedMPH, Max Gust SpeedMPH,PrecipitationIn, CloudCover, Events, WindDirDegrees
2013-3-1,75,57,39,22,9,1,47,15,5,30.30,30.21,30.13,10,10,10,14,3,16,0.00,0,,270
2013-3-2,73,58,42,21,11,4,31,17,8,30.45,30.33,30.26,10,10,10,14,5,21,0.00,0,,333
2013-3-3,82,58,35,47,29,17,67,35,9,30.30,30.14,29.99,10,10,10,17,8,29,0.00,0,,148
2013-3-4,95,74,53,54,39,11,82,41,5,29.97,29.83,29.71,10,10,7,14,9,21,0.00,0,,148
2013-3-5,72,58,45,55,35,22,91,42,16,30.32,30.13,29.79,10,10,7,29,10,43,0.00,1,,14
2013-3-6,72,56,41,40,14,4,54,22,7,30.43,30.30,30.19,10,10,10,13,3,18,0.00,0,,89
2013-3-7,82,66,49,59,49,40,72,50,30,30.19,30.09,30.01,10,10,10,18,9,30,0.00,5,,126
2013-3-8,80,73,66,60,58,56,78,55,43,30.05,29.98,29.93,10,10,10,17,13,26,0.00,4,,137
2013-3-9,94,81,68,62,59,49,78,54,21,29.93,29.73,29.58,10,10,5,23,15,33,0.00,2,,143
2013-3-10,80,70,60,62,32,13,78,31,8,30.10,29.85,29.61,10,10,10,23,12,33,0.00,1,,349
2013-3-11,75,60,45,24,14,2,42,21,6,30.18,30.09,30.02,10,10,10,13,5,23,0.00,0,,330
2013-3-12,82,64,46,37,21,11,70,24,8,30.16,30.09,30.04,10,10,10,10,5,20,0.00,0,,147
2013-3-13,83,73,63,45,36,25,50,27,12,30.36,30.27,30.23,10,10,10,16,11,23,0.00,0,,118
2013-3-14,83,68,53,53,41,32,79,33,15,30.35,30.26,30.18,10,10,10,17,9,25,0.00,0,,141
2013-3-15,85,73,61,54,44,38,71,31,19,30.24,30.07,29.96,10,10,10,17,12,29,0.00,0,,146
2013-3-16,88,74,59,59,50,42,80,41,20,29.99,29.81,29.72,10,10,10,16,10,24,0.00,0,,148
2013-3-17,96,80,63,62,50,30,93,48,10,29.79,29.70,29.60,10,10,5,10,7,17,0.00,0,,127
2013-3-18,98,80,63,63,30,10,93,26,4,29.84,29.76,29.70,10,9,4,14,7,28,0.00,0,,356
2013-3-19,95,79,63,63,52,25,83,49,14,29.97,29.86,29.73,10,9,7,20,5,29,0.00,0,,87
2013-3-20,80,72,64,66,54,46,91,55,29,30.15,30.01,29.83,10,9,4,14,9,23,0.00,7,,85
2013-3-21,82,70,58,63,56,50,77,64,43,30.04,29.80,29.61,10,10,10,15,8,22,0.00,4,,131
2013-3-22,91,80,70,66,62,56,78,60,31,29.71,29.63,29.56,10,8,5,14,7,21,0.00,4,,118
2013-3-23,99,86,72,66,49,0,78,46,4,29.71,29.62,29.52,10,8,5,21,7,29,0.00,3,,9
2013-3-24,74,64,55,62,24,3,82,27,7,30.12,29.96,29.70,10,9,5,26,9,36,0.00,1,,3
2013-3-25,69,56,42,26,19,9,40,23,12,30.32,30.21,30.07,10,10,10,16,8,23,0.00,0,,75
2013-3-26,70,54,39,33,27,22,52,31,17,30.45,30.35,30.27,10,10,10,18,5,26,0.00,5,,119
2013-3-27,70,64,58,52,44,33,61,49,37,30.30,30.21,30.12,10,10,10,17,12,25,0.00,8,,131
2013-3-28,76,70,65,58,56,52,72,62,48,30.16,30.11,30.07,10,10,10,16,11,24,0.00,8,,132
2013-3-29,84,75,66,60,56,52,75,56,33,30.13,30.07,29.98,10,10,10,16,10,24,0.00,6,,132
2013-3-30,91,80,69,62,59,52,76,55,27,30.06,29.98,29.86,10,10,10,17,8,24,0.00,4,,140
2013-3-31,97,82,66,64,59,48,90,56,19,29.93,29.84,29.69,10,10,7,20,9,32,0.00,1,,128